Latest Coastal Weather Observations for Cape Borda

IDS60701

Issued at 3:31 pm CST Sunday 1 May 2016 (issued every 10 minutes, with the page automatically refreshed every 10 minutes)

About coastal observations | Map of coastal stations | Coastal observations for SA | Marine services | Other Formats
Station Details ID: 022823 Name: CAPE BORDA Lat: -35.75 Lon: 136.60 Height: 158.0 m
Data from the previous 72 hours. | See also: Recent months at Cape Borda
Date/Time
CST
Temp

°C
Wind Pressure Rain
since 9am
mm
Weather Cloud Vis
km
Sea
Height
m
Swell
Dir
 
Speed
knots
Gust
knots
hPa Trend Height
m
Period
s
Dir
01/03:30pm 14.4 WSW 8 13 1016.6 - 0.0 - - - - - - -
01/03:00pm 15.6 WSW 9 14 1016.5 R 0.0 Distant precip. Partly cloudy 22 1 6.5 8 SW
01/02:30pm 15.7 W 9 11 1016.3 - 0.0 - - - - - - -
01/02:00pm 14.6 WSW 12 17 1016.4 - 0.0 - - - - - - -
01/01:30pm 15.0 WSW 11 16 1016.3 - 0.0 - - - - - - -
01/01:00pm 14.9 WSW 11 16 1016.4 - 0.0 - - - - - - -
01/12:30pm 15.6 WSW 12 17 1016.6 - 0.0 - - - - - - -
01/12:00pm 15.4 SW 13 17 1016.7 - 0.0 - - - - - - -
01/11:30am 15.2 SW 13 19 1016.9 - 0.0 - - - - - - -
01/11:00am 15.5 SW 13 19 1016.8 - 0.0 - - - - - - -
01/10:30am 15.1 SW 14 18 1016.7 - 0.0 - - - - - - -
01/10:00am 14.4 WSW 14 19 1016.8 - 0.0 - - - - - - -
01/09:30am 14.0 WSW 14 21 1016.7 - 0.0 - - - - - - -
01/09:00am 12.6 SSW 15 21 1016.5 R 9.6 Fine Partly cloudy 18 1 6.4 9 SW
01/08:30am 13.4 SW 15 21 1016.0 - 9.6 - - - - - - -
01/08:00am 12.8 SW 15 21 1015.5 - 9.6 - - - - - - -
01/07:30am 12.1 SW 15 22 1015.0 - 9.6 - - - - - - -
01/07:00am 12.2 SW 18 30 1014.5 - 9.6 - - - - - - -
01/06:55am 12.6 SW 16 28 1014.2 - 9.6 - - - - - - -
01/06:30am 12.0 WSW 17 26 1013.9 - 9.6 - - - - - - -
01/06:22am 12.1 WSW 16 26 1013.8 - 9.6 - - - - - - -
01/06:00am 11.8 SW 17 26 1013.5 - 9.6 - - - - - - -
01/05:41am 12.3 SW 19 30 1012.9 - 9.6 - - - - - - -
01/05:30am 12.3 SW 19 26 1012.7 - 9.6 - - - - - - -
01/05:03am 11.8 SW 19 29 1012.4 - 9.4 - - - - - - -
01/05:00am 11.7 SW 19 28 1012.3 - 9.4 - - - - - - -
01/04:31am 11.3 SW 18 29 1011.7 - 9.4 - - - - - - -
01/04:30am 11.2 SW 17 25 1011.7 - 9.4 - - - - - - -
01/04:00am 10.3 SW 23 41 1010.9 - 9.2 - - - - - - -
01/03:30am 11.9 WSW 21 33 1010.3 - 8.4 - - - - - - -
01/03:01am 11.6 WSW 16 26 1009.8 - 8.2 - - - - - - -
01/03:00am 11.4 WSW 15 24 1009.7 - 8.2 - - - - - - -
01/02:30am 13.3 WSW 21 33 1009.4 - 6.0 - - - - - - -
01/02:00am 13.2 WSW 22 34 1009.2 - 6.0 - - - - - - -
01/01:30am 12.7 WSW 21 33 1009.0 - 5.8 - - - - - - -
01/01:17am 12.4 WSW 22 32 1008.9 - 5.8 - - - - - - -
01/01:00am 12.2 W 24 32 1008.5 - 5.8 - - - - - - -
01/12:30am 12.1 W 19 34 1008.5 - 5.8 - - - - - - -
01/12:00am 13.0 W 24 38 1007.9 - 5.4 - - - - - - -
 
Date/Time
CST
Temp

°C
Wind Pressure Rain
since 9am
mm
Weather Cloud Vis
km
Sea
Height
m
Swell
Dir
 
Speed
knots
Gust
knots
hPa Trend Height
m
Period
s
Dir
30/11:32pm 11.4 W 19 29 1008.1 - 5.4 - - - - - - -
30/11:30pm 11.3 W 20 29 1008.1 - 5.4 - - - - - - -
30/11:29pm 11.3 W 20 29 1008.1 - 5.4 - - - - - - -
30/11:11pm 11.1 WSW 29 39 1007.9 - 5.0 - - - - - - -
30/11:09pm 11.6 WSW 30 39 1007.8 - 5.0 - - - - - - -
30/11:02pm 13.4 W 22 32 1007.8 - 5.0 - - - - - - -
30/11:00pm 13.5 W 22 27 1007.8 - 5.0 - - - - - - -
30/10:58pm 13.4 W 20 27 1007.8 - 5.0 - - - - - - -
30/10:36pm 13.0 WSW 17 27 1007.7 - 5.0 - - - - - - -
30/10:30pm 13.0 WSW 17 25 1007.7 - 5.0 - - - - - - -
30/10:00pm 11.9 WSW 20 31 1007.6 - 5.0 - - - - - - -
30/09:30pm 11.7 WSW 21 32 1007.1 - 4.4 - - - - - - -
30/09:29pm 11.5 WSW 19 30 1007.1 - 4.4 - - - - - - -
30/09:27pm 11.5 WSW 19 27 1007.1 - 4.4 - - - - - - -
30/09:20pm 13.1 W 21 35 1006.9 - 4.0 - - - - - - -
30/09:00pm 12.5 W 17 26 1006.6 - 4.0 - - - - - - -
30/08:30pm 11.5 W 21 29 1006.8 - 4.0 - - - - - - -
30/08:12pm 11.6 W 24 42 1006.6 - 3.0 - - - - - - -
30/08:05pm 12.1 WSW 22 32 1006.3 - 2.0 - - - - - - -
30/08:02pm 12.3 WSW 24 32 1006.0 - 1.6 - - - - - - -
30/08:00pm 13.7 WNW 21 29 1005.9 - 1.4 - - - - - - -
30/07:42pm 13.8 WNW 20 30 1005.9 - 1.2 - - - - - - -
30/07:30pm 13.8 W 20 26 1005.7 - 1.2 - - - - - - -
30/07:04pm 14.3 W 18 28 1005.3 - 0.6 - - - - - - -
30/07:00pm 15.0 WNW 17 23 1005.0 - 0.0 - - - - - - -
30/06:31pm 15.8 NW 21 31 1005.0 - 0.0 - - - - - - -
30/06:30pm 16.0 NW 22 31 1005.1 - 0.0 - - - - - - -
30/06:21pm 16.1 NW 17 28 1004.9 - 0.0 - - - - - - -
30/06:15pm 15.8 WNW 15 21 1004.8 - 0.0 - - - - - - -
30/06:02pm 15.9 W 22 32 1004.8 - 0.0 - - - - - - -
30/06:00pm 15.9 W 23 32 1004.7 - 0.0 - - - - - - -
30/05:53pm 17.7 W 25 32 1004.4 - 0.0 - - - - - - -
30/05:35pm 19.1 NNW 24 34 1003.6 - 0.0 - - - - - - -
30/05:30pm 19.3 NNW 25 34 1003.6 - 0.0 - - - - - - -
30/05:00pm 19.3 NNW 22 33 1003.8 - 0.0 - - - - - - -
30/04:54pm 19.2 NW 21 31 1003.8 - 0.0 - - - - - - -
30/04:30pm 19.2 NW 25 34 1004.0 - 0.0 - - - - - - -
30/04:11pm 19.0 NW 19 30 1004.2 - 0.0 - - - - - - -
30/04:00pm 19.3 NW 16 23 1004.4 - 0.0 - - - - - - -
30/03:30pm 20.0 N 17 22 1004.1 - 0.0 - - - - - - -
30/03:00pm 19.6 N 14 19 1004.2 F 0.0 Fine Partly cloudy 22 2 5.5 7 SW
30/02:30pm 20.0 N 14 19 1004.7 - 0.0 - - - - - - -
30/02:00pm 20.0 N 14 20 1005.1 - 0.0 - - - - - - -
30/01:30pm 19.5 N 13 21 1005.8 - 0.0 - - - - - - -
30/01:00pm 19.3 N 13 18 1006.5 - 0.0 - - - - - - -
30/12:30pm 19.6 N 13 19 1007.1 - 0.0 - - - - - - -
30/12:00pm 19.3 N 12 17 1007.7 - 0.0 - - - - - - -
30/11:30am 18.9 N 14 20 1008.4 - 0.0 - - - - - - -
30/11:00am 18.8 N 15 22 1009.0 - 0.0 - - - - - - -
30/10:30am 18.5 N 15 20 1009.5 - 0.0 - - - - - - -
30/10:00am 18.0 N 14 22 1009.8 - 0.0 - - - - - - -
30/09:30am 17.9 NNW 15 21 1010.2 - 0.0 - - - - - - -
30/09:00am 17.4 NNW 14 19 1010.2 F 0.2 Haze Mostly clear 18 2 5.0 6 SW
30/08:30am 16.9 NNW 14 19 1010.3 - 0.2 - - - - - - -
30/08:00am 16.5 NNW 13 18 1010.2 - 0.2 - - - - - - -
30/07:30am 16.3 NNW 14 21 1010.1 - 0.2 - - - - - - -
30/07:00am 16.1 NNW 13 21 1009.9 - 0.2 - - - - - - -
30/06:30am 15.8 NW 13 18 1009.9 - 0.2 - - - - - - -
30/06:00am 15.8 NW 14 19 1009.9 - 0.2 - - - - - - -
30/05:30am 15.9 NW 12 19 1010.3 - 0.2 - - - - - - -
30/05:00am 15.8 NW 13 18 1010.0 - 0.2 - - - - - - -
30/04:30am 15.8 NNW 13 19 1010.0 - 0.2 - - - - - - -
30/04:00am 15.9 NW 13 19 1009.8 - 0.2 - - - - - - -
30/03:30am 15.9 NW 14 18 1009.9 - 0.2 - - - - - - -
30/03:00am 15.9 NW 15 19 1009.9 - 0.2 - - - - - - -
30/02:30am 15.9 NW 13 19 1010.1 - 0.2 - - - - - - -
30/02:00am 16.1 NW 16 22 1010.3 - 0.2 - - - - - - -
30/01:30am 16.2 NW 16 22 1010.5 - 0.2 - - - - - - -
30/01:00am 16.0 NW 15 21 1010.6 - 0.2 - - - - - - -
30/12:30am 16.2 NW 17 23 1011.0 - 0.2 - - - - - - -
30/12:00am 16.2 NW 15 21 1011.1 - 0.2 - - - - - - -
 
Date/Time
CST
Temp

°C
Wind Pressure Rain
since 9am
mm
Weather Cloud Vis
km
Sea
Height
m
Swell
Dir
 
Speed
knots
Gust
knots
hPa Trend Height
m
Period
s
Dir
29/11:30pm 16.1 NW 14 20 1011.3 - 0.2 - - - - - - -
29/11:00pm 16.1 NNW 14 21 1011.6 - 0.2 - - - - - - -
29/10:30pm 16.4 NNW 13 20 1011.8 - 0.2 - - - - - - -
29/10:00pm 16.3 NNW 12 19 1011.9 - 0.2 - - - - - - -
29/09:30pm 16.2 NW 11 15 1011.8 - 0.2 - - - - - - -
29/09:00pm 16.1 NW 11 15 1011.6 - 0.2 - - - - - - -
29/08:30pm 15.9 NW 9 14 1011.5 - 0.2 - - - - - - -
29/08:00pm 16.0 NW 10 13 1011.4 - 0.2 - - - - - - -
29/07:30pm 16.0 NW 9 13 1011.3 - 0.2 - - - - - - -
29/07:00pm 16.1 NW 9 12 1011.3 - 0.2 - - - - - - -
29/06:30pm 15.9 NW 8 10 1011.0 - 0.2 - - - - - - -
29/06:00pm 16.1 NW 7 10 1010.6 - 0.2 - - - - - - -
29/05:30pm 16.6 WNW 7 11 1010.7 - 0.2 - - - - - - -
29/05:00pm 17.6 WNW 7 10 1010.5 - 0.2 - - - - - - -
29/04:30pm 18.3 WNW 8 11 1010.6 - 0.2 - - - - - - -
29/04:00pm 18.6 WNW 9 13 1010.4 - 0.2 - - - - - - -
29/03:30pm 18.7 WNW 11 14 1010.3 - 0.2 - - - - - - -
29/03:00pm 18.8 WNW 11 15 1009.9 R 0.2 Fine Mostly clear 22 1 3.3 6 SW
29/02:30pm 17.9 NW 11 15 1010.1 - 0.2 - - - - - - -
29/02:00pm 17.8 NW 11 15 1010.3 - 0.2 - - - - - - -
29/01:30pm 18.8 NW 11 15 1010.1 - 0.2 - - - - - - -
29/01:00pm 18.9 NNW 11 17 1010.1 - 0.2 - - - - - - -
29/12:30pm 18.8 NNW 11 16 1010.4 - 0.0 - - - - - - -
29/12:00pm 18.4 NNW 13 19 1010.4 - 0.0 - - - - - - -
29/11:30am 17.9 NNW 14 19 1010.8 - 0.0 - - - - - - -
29/11:00am 17.8 NNW 14 18 1011.0 - 0.0 - - - - - - -
29/10:30am 16.9 N 13 19 1011.1 - 0.0 - - - - - - -
29/10:00am 17.1 NNW 13 17 1011.0 - 0.0 - - - - - - -
29/09:30am 17.0 NNW 14 19 1011.1 - 0.0 - - - - - - -
29/09:00am - NNW 14 18 1010.9 - - Fine Partly cloudy 18 1 3.5 6 SW
29/08:32am - - - - 1011.0 - - - - - - - - -

Other Formats:

Comma delimited format used in spreadsheet applications
http://www.bom.gov.au/fwo/IDS60701/IDS60701.95805.axf

JavaScript Object Notation format (JSON) in row-major order
http://www.bom.gov.au/fwo/IDS60701/IDS60701.95805.json